KLHB/LHB METAR and TAF weather

Enter ICAO airport designator
Station Type Date Time Source
KLHB METAR 2021/05/14 07:55 UTC NOAA

KLHB 140755Z AUTO 00000KT 10SM SCT050 18/16 A3020 RMK AO2 T01760163


Station Type Date Time Source
KLHB Decoded METAR 2021/05/14 07:55 UTC NOAA

Hearne, Hearne Municipal Airport, TX, United States (KLHB) 30-52-18N 096-37-20W
May 14, 2021 - 03:55 AM EDT / 2021.05.14 0755 UTC
Wind: Calm:0
Visibility: 10 mile(s):0
Sky conditions: partly cloudy
Temperature: 63.7 F (17.6 C)
Dew Point: 61.3 F (16.3 C)
Relative Humidity: 92%
Pressure (altimeter): 30.2 in. Hg (1022 hPa)
ob: KLHB 140755Z AUTO 00000KT 10SM SCT050 18/16 A3020 RMK AO2 T01760163
cycle: 8

Station Type Date Time Source
KLHB TAF UTC NOAA

Error!

Example: see airport list